Time;durP1;ratioP1;P1;durP2;ratioP2;P2;SDS_P1;SDS_P2;PMS_P1;PMS_P2;Temp;Humidity;BMP_temperature;BMP_pressure;BME280_temperature;BME280_humidity;BME280_pressure;Samples;Min_cycle;Max_cycle;Signal;HPM_P1;HPM_P2
2022/04/20 00:01:13;;;;;;;9.70;6.13;;;;;;;;;;5070310;28;20036;-63
2022/04/20 00:03:39;;;;;;;10.77;5.93;;;;;;;;;;5070902;28;20384;-63
2022/04/20 00:06:06;;;;;;;10.00;5.23;;;;;;;;;;5069911;28;20076;-63
2022/04/20 00:08:32;;;;;;;11.27;5.77;;;;;;;;;;5070330;28;20048;-63
2022/04/20 00:10:59;;;;;;;9.57;5.50;;;;;;;;;;5069958;28;20033;-63
2022/04/20 00:13:25;;;;;;;7.93;5.30;;;;;;;;;;5070599;28;20426;-63
2022/04/20 00:15:51;;;;;;;8.03;5.03;;;;;;;;;;5069984;28;20045;-63
2022/04/20 00:18:17;;;;;;;10.23;5.43;;;;;;;;;;5070126;28;20098;-63
2022/04/20 00:20:43;;;;;;;7.33;4.70;;;;;;;;;;5069631;28;20061;-63
2022/04/20 00:23:09;;;;;;;8.93;4.90;;;;;;;;;;5069621;28;20047;-63
2022/04/20 00:25:36;;;;;;;8.47;5.07;;;;;;;;;;5070097;28;20123;-63
2022/04/20 00:28:02;;;;;;;8.07;5.10;;;;;;;;;;5069518;28;20438;-63
2022/04/20 00:30:28;;;;;;;10.17;5.67;;;;;;;;;;5069326;28;20051;-63
2022/04/20 00:32:55;;;;;;;9.97;4.97;;;;;;;;;;5069259;28;20094;-63
2022/04/20 00:35:21;;;;;;;11.43;5.33;;;;;;;;;;5069605;28;20059;-63
2022/04/20 00:37:48;;;;;;;10.73;5.50;;;;;;;;;;5068474;28;20057;-63
2022/04/20 00:40:14;;;;;;;8.37;5.03;;;;;;;;;;5069377;28;20048;-63
2022/04/20 00:42:41;;;;;;;9.97;5.30;;;;;;;;;;5069729;28;20048;-63
2022/04/20 00:45:08;;;;;;;8.70;4.97;;;;;;;;;;5068899;28;20033;-63
2022/04/20 00:47:36;;;;;;;11.50;5.00;;;;;;;;;;5068964;28;20036;-63
2022/04/20 00:50:03;;;;;;;9.33;5.13;;;;;;;;;;5049672;28;20051;-63
2022/04/20 00:52:29;;;;;;;8.73;5.80;;;;;;;;;;5049181;28;20063;-63
2022/04/20 00:54:55;;;;;;;9.03;5.33;;;;;;;;;;5049444;28;20045;-63
2022/04/20 00:57:21;;;;;;;14.80;6.00;;;;;;;;;;5048876;28;20049;-63
2022/04/20 00:59:48;;;;;;;10.30;5.40;;;;;;;;;;5053327;28;20036;-64
2022/04/20 01:02:15;;;;;;;11.03;5.20;;;;;;;;;;5069468;28;20045;-63
2022/04/20 01:04:41;;;;;;;9.00;4.93;;;;;;;;;;5069126;28;20526;-63
2022/04/20 01:07:13;;;;;;;8.40;4.73;;;;;;;;;;5068805;28;20041;-63
2022/04/20 01:09:40;;;;;;;8.38;5.03;;;;;;;;;;5068409;28;20181;-63
2022/04/20 01:12:07;;;;;;;10.80;5.60;;;;;;;;;;5068509;28;20041;-63
2022/04/20 01:14:33;;;;;;;8.43;4.70;;;;;;;;;;5069077;28;20123;-63
2022/04/20 01:16:59;;;;;;;10.47;5.80;;;;;;;;;;5068653;28;20115;-63
2022/04/20 01:19:40;;;;;;;11.83;5.63;;;;;;;;;;5068774;28;20172;-64
2022/04/20 01:22:07;;;;;;;13.60;6.00;;;;;;;;;;5068968;28;20087;-63
2022/04/20 01:24:34;;;;;;;9.17;5.13;;;;;;;;;;5068625;28;20040;-63
2022/04/20 01:27:00;;;;;;;9.50;5.70;;;;;;;;;;5069091;28;20594;-63
2022/04/20 01:29:26;;;;;;;9.93;5.23;;;;;;;;;;5068005;28;20453;-64
2022/04/20 01:31:52;;;;;;;10.37;5.50;;;;;;;;;;5068357;28;20040;-63
2022/04/20 01:34:19;;;;;;;10.20;5.87;;;;;;;;;;5068851;28;20406;-64
2022/04/20 01:36:45;;;;;;;9.33;5.40;;;;;;;;;;5068799;28;20176;-63
2022/04/20 01:39:11;;;;;;;13.40;6.20;;;;;;;;;;5068602;28;20049;-63
2022/04/20 01:41:37;;;;;;;13.43;6.00;;;;;;;;;;5068467;28;20097;-63
2022/04/20 01:44:03;;;;;;;11.37;5.87;;;;;;;;;;5068768;28;20131;-63
2022/04/20 01:46:29;;;;;;;11.60;5.90;;;;;;;;;;5068399;28;20497;-63
2022/04/20 01:48:55;;;;;;;11.03;5.57;;;;;;;;;;5067931;28;20169;-63
2022/04/20 01:54:07;;;;;;;9.87;5.47;;;;;;;;;;5068291;28;20045;-64
2022/04/20 01:56:33;;;;;;;11.67;6.00;;;;;;;;;;5068672;28;20094;-64
2022/04/20 01:58:59;;;;;;;10.37;5.33;;;;;;;;;;5068819;28;20499;-64
2022/04/20 02:04:10;;;;;;;11.17;5.97;;;;;;;;;;5068736;28;20049;-64
2022/04/20 02:06:36;;;;;;;17.10;5.90;;;;;;;;;;5068529;28;20106;-64
2022/04/20 02:09:02;;;;;;;20.63;6.73;;;;;;;;;;5068259;28;20052;-64
2022/04/20 02:11:28;;;;;;;10.67;5.70;;;;;;;;;;5068866;28;20051;-63
2022/04/20 02:13:54;;;;;;;13.73;7.17;;;;;;;;;;5067779;28;20395;-63
2022/04/20 02:16:20;;;;;;;10.87;6.23;;;;;;;;;;5068543;28;20048;-63
2022/04/20 02:18:47;;;;;;;12.17;5.80;;;;;;;;;;5068126;28;20044;-63
2022/04/20 02:21:13;;;;;;;15.03;5.43;;;;;;;;;;5068349;28;20044;-64
2022/04/20 02:23:39;;;;;;;11.13;5.83;;;;;;;;;;5068390;28;20097;-64
2022/04/20 02:26:05;;;;;;;11.47;6.03;;;;;;;;;;5068320;28;20052;-64
2022/04/20 02:28:31;;;;;;;13.67;6.23;;;;;;;;;;5067979;28;20045;-64
2022/04/20 02:30:57;;;;;;;15.60;6.13;;;;;;;;;;5068076;28;20506;-63
2022/04/20 02:33:23;;;;;;;12.30;6.40;;;;;;;;;;5068243;28;20045;-64
2022/04/20 02:35:49;;;;;;;15.83;6.27;;;;;;;;;;5068222;28;20040;-64
2022/04/20 02:38:15;;;;;;;12.17;6.43;;;;;;;;;;5067751;28;20082;-64
2022/04/20 02:40:42;;;;;;;16.53;6.60;;;;;;;;;;5068176;28;20068;-64
2022/04/20 02:43:08;;;;;;;11.70;6.53;;;;;;;;;;5068174;28;20041;-64
2022/04/20 02:45:34;;;;;;;12.37;6.30;;;;;;;;;;5068108;28;20048;-64
2022/04/20 02:48:01;;;;;;;12.87;6.30;;;;;;;;;;5067194;28;20098;-63
2022/04/20 02:50:28;;;;;;;9.50;5.97;;;;;;;;;;5067635;28;20040;-63
2022/04/20 02:52:54;;;;;;;15.10;6.27;;;;;;;;;;5068172;28;20055;-64
2022/04/20 02:55:20;;;;;;;13.63;6.73;;;;;;;;;;5067951;28;20495;-64
2022/04/20 02:57:46;;;;;;;11.67;5.40;;;;;;;;;;5067509;28;20055;-63
2022/04/20 03:00:12;;;;;;;11.43;5.97;;;;;;;;;;5068521;28;20494;-63
2022/04/20 03:02:39;;;;;;;10.63;6.50;;;;;;;;;;5076641;28;20049;-63
2022/04/20 03:05:05;;;;;;;11.93;6.10;;;;;;;;;;5071537;28;20637;-63
2022/04/20 03:07:31;;;;;;;11.83;6.87;;;;;;;;;;5071067;28;20407;-63
2022/04/20 03:09:57;;;;;;;11.27;6.60;;;;;;;;;;5071171;28;20048;-63
2022/04/20 03:12:23;;;;;;;14.57;6.53;;;;;;;;;;5072082;28;20052;-64
2022/04/20 03:14:51;;;;;;;11.30;5.87;;;;;;;;;;5070342;28;20052;-64
2022/04/20 03:17:18;;;;;;;15.70;7.27;;;;;;;;;;5051377;28;20057;-64
2022/04/20 03:19:44;;;;;;;11.07;6.43;;;;;;;;;;5051661;28;20045;-64
2022/04/20 03:22:09;;;;;;;12.37;5.70;;;;;;;;;;5051933;28;20041;-64
2022/04/20 03:24:36;;;;;;;13.17;6.87;;;;;;;;;;5071492;28;20503;-64
2022/04/20 03:27:02;;;;;;;14.43;7.97;;;;;;;;;;5070972;28;20040;-64
2022/04/20 03:29:28;;;;;;;15.23;5.97;;;;;;;;;;5070817;28;20044;-64
2022/04/20 03:31:54;;;;;;;12.17;6.67;;;;;;;;;;5087330;28;20566;-64
2022/04/20 03:34:21;;;;;;;15.67;6.13;;;;;;;;;;5070615;28;20048;-64
2022/04/20 03:36:47;;;;;;;13.27;5.83;;;;;;;;;;5073067;28;20105;-63
2022/04/20 03:39:13;;;;;;;11.53;6.13;;;;;;;;;;5072912;28;20040;-64
2022/04/20 03:41:39;;;;;;;14.80;6.70;;;;;;;;;;5066296;28;20048;-64
2022/04/20 03:44:05;;;;;;;12.53;6.70;;;;;;;;;;5069685;28;20402;-63
2022/04/20 03:46:31;;;;;;;12.77;7.07;;;;;;;;;;5067421;28;20399;-64
2022/04/20 03:48:57;;;;;;;13.47;6.93;;;;;;;;;;5068702;28;20450;-64
2022/04/20 03:51:23;;;;;;;14.87;7.67;;;;;;;;;;5061767;28;20055;-64
2022/04/20 03:53:50;;;;;;;12.93;6.70;;;;;;;;;;5050602;28;20055;-64
2022/04/20 03:56:16;;;;;;;14.47;7.03;;;;;;;;;;5065551;28;20044;-64
2022/04/20 03:58:41;;;;;;;12.63;7.20;;;;;;;;;;5070577;28;20041;-64
2022/04/20 04:01:07;;;;;;;13.83;7.10;;;;;;;;;;5070662;28;20044;-64
2022/04/20 04:03:35;;;;;;;11.77;7.37;;;;;;;;;;5070334;28;20123;-64
2022/04/20 04:06:01;;;;;;;11.97;6.60;;;;;;;;;;5070366;28;20036;-64
2022/04/20 04:08:27;;;;;;;13.43;6.87;;;;;;;;;;5070102;28;20055;-64
2022/04/20 04:10:53;;;;;;;17.77;6.70;;;;;;;;;;5070493;28;20040;-64
2022/04/20 04:13:19;;;;;;;14.13;7.10;;;;;;;;;;5069775;28;20089;-64
2022/04/20 04:15:45;;;;;;;16.93;7.17;;;;;;;;;;5070467;28;20046;-64
2022/04/20 04:18:11;;;;;;;11.47;6.67;;;;;;;;;;5069793;28;20402;-64
2022/04/20 04:20:37;;;;;;;15.83;7.53;;;;;;;;;;5070135;28;20055;-64
2022/04/20 04:23:03;;;;;;;23.00;8.20;;;;;;;;;;5069382;28;20410;-64
2022/04/20 04:25:30;;;;;;;17.37;8.23;;;;;;;;;;5069309;28;20095;-64
2022/04/20 04:27:56;;;;;;;15.67;9.10;;;;;;;;;;5069929;28;20415;-64
2022/04/20 04:30:22;;;;;;;16.67;8.03;;;;;;;;;;5069560;28;20114;-64
2022/04/20 04:32:48;;;;;;;17.27;7.70;;;;;;;;;;5069467;28;20731;-64
2022/04/20 04:35:14;;;;;;;13.47;8.17;;;;;;;;;;5069181;28;20124;-64
2022/04/20 04:37:40;;;;;;;15.20;7.43;;;;;;;;;;5069736;28;20048;-64
2022/04/20 04:40:06;;;;;;;20.10;7.60;;;;;;;;;;5069369;28;20049;-64
2022/04/20 04:42:32;;;;;;;14.57;7.70;;;;;;;;;;5069080;28;20052;-64
2022/04/20 04:48:36;;;;;;;14.87;8.03;;;;;;;;;;5069157;28;20495;-64
2022/04/20 04:50:29;;;;;;;13.80;7.70;;;;;;;;;;5068709;28;20131;-64
2022/04/20 04:52:55;;;;;;;14.20;8.10;;;;;;;;;;5069139;28;20151;-64
2022/04/20 04:55:21;;;;;;;18.23;8.53;;;;;;;;;;5069196;28;20048;-64
2022/04/20 04:57:47;;;;;;;16.13;8.93;;;;;;;;;;5068524;28;20044;-64
2022/04/20 05:00:13;;;;;;;13.67;8.00;;;;;;;;;;5068680;28;20116;-64
2022/04/20 05:02:40;;;;;;;15.23;8.20;;;;;;;;;;5069144;28;20109;-64
2022/04/20 05:05:06;;;;;;;16.93;8.30;;;;;;;;;;5068680;28;20079;-64
2022/04/20 05:07:32;;;;;;;16.33;9.10;;;;;;;;;;5069038;28;20040;-64
2022/04/20 05:09:58;;;;;;;19.23;9.33;;;;;;;;;;5068987;28;20720;-64
2022/04/20 05:12:24;;;;;;;17.00;8.77;;;;;;;;;;5068967;28;20044;-64
2022/04/20 05:14:50;;;;;;;21.63;9.73;;;;;;;;;;5068678;28;20454;-64
2022/04/20 05:17:16;;;;;;;15.03;8.73;;;;;;;;;;5068619;28;20037;-64
2022/04/20 05:19:42;;;;;;;17.23;9.17;;;;;;;;;;5068690;28;20044;-64
2022/04/20 05:22:08;;;;;;;22.43;9.23;;;;;;;;;;5068595;28;20839;-64
2022/04/20 05:24:37;;;;;;;18.13;8.60;;;;;;;;;;5067196;28;20048;-64
2022/04/20 05:27:03;;;;;;;18.00;8.90;;;;;;;;;;5068733;28;20102;-64
2022/04/20 05:29:29;;;;;;;17.23;9.00;;;;;;;;;;5067154;28;20131;-64
2022/04/20 05:31:56;;;;;;;19.27;9.53;;;;;;;;;;5068136;28;20143;-64
2022/04/20 05:34:27;;;;;;;18.73;9.13;;;;;;;;;;5068566;28;20047;-64
2022/04/20 05:42:23;;;;;;;19.30;8.97;;;;;;;;;;5068060;28;20053;-64
2022/04/20 05:44:49;;;;;;;16.27;8.60;;;;;;;;;;5068348;28;20075;-64
2022/04/20 05:47:15;;;;;;;18.60;9.03;;;;;;;;;;5068605;28;20053;-64
2022/04/20 05:49:41;;;;;;;14.63;9.00;;;;;;;;;;5068495;28;20071;-64
2022/04/20 05:52:08;;;;;;;13.87;7.77;;;;;;;;;;5068224;28;20595;-64
2022/04/20 05:54:34;;;;;;;14.10;8.83;;;;;;;;;;5068119;28;20052;-64
2022/04/20 05:57:01;;;;;;;12.70;7.53;;;;;;;;;;5068399;28;20132;-65
2022/04/20 05:59:27;;;;;;;13.50;8.20;;;;;;;;;;5068487;28;20380;-64
2022/04/20 06:01:53;;;;;;;12.40;8.20;;;;;;;;;;5068507;28;20498;-64
2022/04/20 06:04:19;;;;;;;14.10;8.50;;;;;;;;;;5068811;28;20100;-64
2022/04/20 06:06:45;;;;;;;13.57;7.87;;;;;;;;;;5068183;28;20051;-64
2022/04/20 06:09:12;;;;;;;11.37;7.37;;;;;;;;;;5068100;28;20045;-65
2022/04/20 06:11:38;;;;;;;12.50;7.77;;;;;;;;;;5068347;28;20048;-64
2022/04/20 06:14:04;;;;;;;13.87;7.83;;;;;;;;;;5068507;28;20128;-64
2022/04/20 06:16:30;;;;;;;14.77;7.83;;;;;;;;;;5068900;28;20041;-64
2022/04/20 06:18:56;;;;;;;11.43;6.70;;;;;;;;;;5069067;28;20048;-64
2022/04/20 06:21:22;;;;;;;12.13;7.53;;;;;;;;;;5069075;28;20522;-64
2022/04/20 06:23:48;;;;;;;12.50;7.60;;;;;;;;;;5069154;28;20036;-64
2022/04/20 06:26:14;;;;;;;12.90;7.67;;;;;;;;;;5069094;28;20047;-64
2022/04/20 06:28:41;;;;;;;19.00;7.90;;;;;;;;;;5068871;28;20048;-65
2022/04/20 06:31:07;;;;;;;14.13;7.40;;;;;;;;;;5069109;28;20043;-64
2022/04/20 06:33:33;;;;;;;12.10;7.13;;;;;;;;;;5068562;28;20067;-64
2022/04/20 06:36:00;;;;;;;9.63;6.07;;;;;;;;;;5068079;28;20098;-64
2022/04/20 06:38:26;;;;;;;11.20;6.43;;;;;;;;;;5072096;28;20060;-64
2022/04/20 06:40:53;;;;;;;12.97;7.10;;;;;;;;;;5072762;28;20048;-64
2022/04/20 06:43:19;;;;;;;8.77;5.20;;;;;;;;;;5071855;28;20045;-64
2022/04/20 06:45:48;;;;;;;12.77;5.93;;;;;;;;;;5070131;28;20044;-65
2022/04/20 06:48:14;;;;;;;10.10;5.00;;;;;;;;;;5072813;28;20041;-65
2022/04/20 06:50:40;;;;;;;6.90;4.20;;;;;;;;;;5072340;28;20049;-65
2022/04/20 06:58:36;;;;;;;9.90;5.30;;;;;;;;;;5072607;28;20052;-65
2022/04/20 07:01:06;;;;;;;7.87;4.53;;;;;;;;;;5070185;28;20044;-65
2022/04/20 07:03:32;;;;;;;10.87;4.93;;;;;;;;;;5070892;28;20041;-65
2022/04/20 07:05:59;;;;;;;11.33;5.10;;;;;;;;;;5069422;28;20071;-65
2022/04/20 07:08:25;;;;;;;10.33;4.47;;;;;;;;;;5071035;28;20048;-65
2022/04/20 07:10:51;;;;;;;8.10;4.33;;;;;;;;;;5068695;28;20040;-65
2022/04/20 07:13:17;;;;;;;6.27;3.80;;;;;;;;;;5071423;28;20546;-65
2022/04/20 07:15:44;;;;;;;9.33;4.43;;;;;;;;;;5079538;28;20044;-65
2022/04/20 07:18:10;;;;;;;8.47;3.70;;;;;;;;;;5081246;28;20101;-65
2022/04/20 07:20:36;;;;;;;5.93;3.53;;;;;;;;;;5085053;28;20051;-65
2022/04/20 07:23:03;;;;;;;19.87;4.43;;;;;;;;;;5074762;28;20041;-65
2022/04/20 07:25:30;;;;;;;7.17;3.50;;;;;;;;;;5076987;28;20044;-65
2022/04/20 07:27:56;;;;;;;7.60;3.43;;;;;;;;;;5077394;28;20045;-65
2022/04/20 07:30:23;;;;;;;6.87;3.30;;;;;;;;;;5072260;28;20161;-65
2022/04/20 07:32:49;;;;;;;6.90;3.33;;;;;;;;;;5071333;28;20418;-65
2022/04/20 07:35:16;;;;;;;6.57;2.90;;;;;;;;;;5070969;28;20456;-65
2022/04/20 07:37:42;;;;;;;5.47;3.03;;;;;;;;;;5070834;28;20530;-65
2022/04/20 07:40:08;;;;;;;7.10;3.13;;;;;;;;;;5072801;28;20040;-65
2022/04/20 07:42:37;;;;;;;5.07;2.83;;;;;;;;;;5081278;28;20044;-65
2022/04/20 07:45:03;;;;;;;6.20;3.67;;;;;;;;;;5071108;28;20071;-65
2022/04/20 07:47:30;;;;;;;5.70;2.80;;;;;;;;;;5069725;28;20044;-65
2022/04/20 07:52:41;;;;;;;5.50;2.80;;;;;;;;;;5071026;28;20044;-65
2022/04/20 07:55:11;;;;;;;5.97;2.50;;;;;;;;;;5069736;28;20052;-64
2022/04/20 07:57:37;;;;;;;6.27;2.40;;;;;;;;;;5071004;28;20135;-65
2022/04/20 08:00:04;;;;;;;5.57;2.27;;;;;;;;;;5074409;28;20040;-65
2022/04/20 08:02:30;;;;;;;3.93;1.97;;;;;;;;;;5070947;28;20041;-65
2022/04/20 08:04:56;;;;;;;5.23;1.80;;;;;;;;;;5083155;28;20519;-65
2022/04/20 08:07:22;;;;;;;4.03;2.47;;;;;;;;;;5071186;28;20087;-65
2022/04/20 08:09:48;;;;;;;6.23;2.27;;;;;;;;;;5087756;28;20060;-65
2022/04/20 08:12:14;;;;;;;7.07;1.97;;;;;;;;;;5075403;28;20041;-65
2022/04/20 08:14:40;;;;;;;3.40;2.00;;;;;;;;;;5079541;28;20107;-65
2022/04/20 08:17:06;;;;;;;4.67;2.33;;;;;;;;;;5070563;28;20055;-65
2022/04/20 08:19:32;;;;;;;3.63;1.93;;;;;;;;;;5071091;28;20048;-65
2022/04/20 08:21:58;;;;;;;5.13;2.70;;;;;;;;;;5070773;28;20140;-65
2022/04/20 08:24:24;;;;;;;4.60;2.00;;;;;;;;;;5070489;28;20048;-65
2022/04/20 08:26:50;;;;;;;3.97;1.97;;;;;;;;;;5069736;28;20061;-65
2022/04/20 08:29:16;;;;;;;4.13;1.93;;;;;;;;;;5070216;28;20383;-63
2022/04/20 08:31:42;;;;;;;4.73;2.33;;;;;;;;;;5070032;28;20044;-62
2022/04/20 08:34:08;;;;;;;5.80;2.30;;;;;;;;;;5069270;28;20036;-62
2022/04/20 08:36:34;;;;;;;4.47;2.70;;;;;;;;;;5069357;28;20045;-62
2022/04/20 08:39:01;;;;;;;5.43;1.60;;;;;;;;;;5070556;28;20044;-63
2022/04/20 08:41:27;;;;;;;4.50;2.10;;;;;;;;;;5069417;28;20493;-63
2022/04/20 08:43:53;;;;;;;4.80;1.80;;;;;;;;;;5069503;28;20391;-63
2022/04/20 08:46:19;;;;;;;7.00;1.93;;;;;;;;;;5069367;28;20048;-63
2022/04/20 08:48:45;;;;;;;5.27;1.90;;;;;;;;;;5077479;28;20062;-63
2022/04/20 08:51:11;;;;;;;4.67;2.13;;;;;;;;;;5071494;28;20044;-63
2022/04/20 08:53:38;;;;;;;11.83;4.00;;;;;;;;;;5069135;28;20041;-64
2022/04/20 08:58:50;;;;;;;4.93;2.20;;;;;;;;;;5076417;28;20045;-62
2022/04/20 09:01:17;;;;;;;5.80;2.70;;;;;;;;;;5070026;28;20041;-62
2022/04/20 09:03:50;;;;;;;5.33;2.40;;;;;;;;;;5068978;28;20123;-62
2022/04/20 09:06:17;;;;;;;7.80;2.07;;;;;;;;;;5070420;28;20491;-62
2022/04/20 09:08:44;;;;;;;3.50;1.77;;;;;;;;;;5067340;28;20044;-62
2022/04/20 09:11:10;;;;;;;6.50;2.30;;;;;;;;;;5072092;28;20036;-63
2022/04/20 09:13:41;;;;;;;4.83;2.50;;;;;;;;;;5073436;28;20040;-63
2022/04/20 09:16:07;;;;;;;5.13;2.07;;;;;;;;;;5077319;28;20517;-63
2022/04/20 09:18:34;;;;;;;6.63;2.10;;;;;;;;;;5069236;28;20391;-63
2022/04/20 09:21:07;;;;;;;3.80;1.80;;;;;;;;;;5070288;28;20407;-63
2022/04/20 09:23:34;;;;;;;2.92;1.60;;;;;;;;;;5068039;28;20486;-64
2022/04/20 09:26:07;;;;;;;5.07;1.97;;;;;;;;;;5069178;28;20128;-63
2022/04/20 09:28:33;;;;;;;3.97;1.73;;;;;;;;;;5069198;28;20049;-63
2022/04/20 09:30:59;;;;;;;3.87;1.73;;;;;;;;;;5082096;28;20433;-63
2022/04/20 09:34:00;;;;;;;3.20;2.00;;;;;;;;;;5072289;28;20047;-62
2022/04/20 09:36:45;;;;;;;7.17;1.80;;;;;;;;;;5026843;28;20916;-63
2022/04/20 09:39:13;;;;;;;6.50;1.83;;;;;;;;;;5065332;28;20044;-62
2022/04/20 09:41:58;;;;;;;6.13;1.83;;;;;;;;;;5069208;28;20047;-63
2022/04/20 09:44:25;;;;;;;4.20;1.60;;;;;;;;;;5067765;28;20912;-63
2022/04/20 09:50:11;;;;;;;2.40;1.63;;;;;;;;;;5072846;28;20053;-64
2022/04/20 09:52:39;;;;;;;5.73;1.80;;;;;;;;;;5056441;28;20132;-64
2022/04/20 09:55:06;;;;;;;4.20;1.70;;;;;;;;;;5069690;28;20051;-64
2022/04/20 09:57:32;;;;;;;4.43;2.17;;;;;;;;;;5069023;28;20040;-64
2022/04/20 09:59:59;;;;;;;4.23;1.87;;;;;;;;;;5069448;28;20056;-64
2022/04/20 10:02:25;;;;;;;4.57;1.50;;;;;;;;;;5069483;28;20049;-64
2022/04/20 10:04:52;;;;;;;2.83;1.67;;;;;;;;;;5068910;28;20421;-64
2022/04/20 10:07:18;;;;;;;4.87;1.73;;;;;;;;;;5069379;28;20131;-64
2022/04/20 10:09:45;;;;;;;4.93;1.70;;;;;;;;;;5069255;28;20054;-64
2022/04/20 10:12:15;;;;;;;3.97;1.93;;;;;;;;;;5073057;28;20394;-64
2022/04/20 10:17:27;;;;;;;5.83;1.97;;;;;;;;;;5072140;28;20048;-64
2022/04/20 10:19:54;;;;;;;3.53;1.90;;;;;;;;;;5072824;28;20521;-64
2022/04/20 10:22:21;;;;;;;6.17;1.83;;;;;;;;;;5070930;28;20135;-63
2022/04/20 10:24:53;;;;;;;2.90;1.50;;;;;;;;;;5072003;28;20041;-64
2022/04/20 10:27:22;;;;;;;5.83;1.90;;;;;;;;;;5072440;28;20036;-64
2022/04/20 10:29:48;;;;;;;5.40;1.70;;;;;;;;;;5071611;28;20094;-64
2022/04/20 10:32:22;;;;;;;6.30;1.60;;;;;;;;;;5072111;28;20044;-64
2022/04/20 10:34:50;;;;;;;4.17;1.87;;;;;;;;;;5072030;28;20123;-64
2022/04/20 10:37:19;;;;;;;3.43;1.80;;;;;;;;;;5072010;28;20064;-64
2022/04/20 10:39:47;;;;;;;2.97;1.73;;;;;;;;;;5071714;28;20616;-63
2022/04/20 10:42:17;;;;;;;3.50;1.63;;;;;;;;;;5071293;28;20044;-64
2022/04/20 10:45:03;;;;;;;5.10;1.53;;;;;;;;;;5072103;28;20123;-64
2022/04/20 10:47:29;;;;;;;3.53;1.70;;;;;;;;;;5071652;28;20037;-64
2022/04/20 10:50:14;;;;;;;4.50;1.80;;;;;;;;;;5071699;28;20044;-64
2022/04/20 10:52:41;;;;;;;4.00;1.47;;;;;;;;;;5071654;28;20052;-64
2022/04/20 10:55:11;;;;;;;3.23;1.53;;;;;;;;;;5071148;28;20044;-64
2022/04/20 10:57:38;;;;;;;5.23;2.10;;;;;;;;;;5071695;28;20130;-64
2022/04/20 11:00:19;;;;;;;4.20;1.80;;;;;;;;;;5071799;28;20052;-63
2022/04/20 11:02:51;;;;;;;6.93;1.77;;;;;;;;;;5071692;28;20049;-64
2022/04/20 11:05:24;;;;;;;2.67;1.77;;;;;;;;;;5071479;28;20096;-64
2022/04/20 11:07:50;;;;;;;;;;;;;;;;;;5072027;28;20044;-63
2022/04/20 11:10:16;;;;;;;3.33;1.80;;;;;;;;;;5081660;28;19963;-63
2022/04/20 11:18:42;;;;;;;2.85;1.70;;;;;;;;;;5092707;28;20490;-64
2022/04/20 11:21:07;;;;;;;3.00;1.45;;;;;;;;;;5092652;28;20070;-64
2022/04/20 11:23:52;;;;;;;4.63;1.77;;;;;;;;;;5084805;28;20383;-64
2022/04/20 11:26:24;;;;;;;4.13;1.95;;;;;;;;;;5071777;28;20568;-63
2022/04/20 11:28:51;;;;;;;3.35;2.20;;;;;;;;;;5072457;28;20549;-63
2022/04/20 11:31:17;;;;;;;3.58;1.65;;;;;;;;;;5072083;28;20040;-63
2022/04/20 11:33:43;;;;;;;3.80;1.60;;;;;;;;;;5072059;28;20044;-63
2022/04/20 11:36:16;;;;;;;3.22;1.67;;;;;;;;;;5071985;28;20041;-63
2022/04/20 11:38:43;;;;;;;7.18;1.85;;;;;;;;;;5072019;28;20048;-64
2022/04/20 11:41:10;;;;;;;3.00;1.77;;;;;;;;;;5071471;28;20140;-63
2022/04/20 11:43:37;;;;;;;3.63;2.13;;;;;;;;;;5071924;28;20056;-64
2022/04/20 11:46:04;;;;;;;4.90;2.25;;;;;;;;;;5071661;28;20041;-64
2022/04/20 11:48:30;;;;;;;4.60;2.05;;;;;;;;;;5071717;28;20048;-64
2022/04/20 11:50:57;;;;;;;4.35;2.00;;;;;;;;;;5071686;28;20397;-64
2022/04/20 11:53:38;;;;;;;3.72;1.92;;;;;;;;;;5071475;28;20044;-64
2022/04/20 11:56:04;;;;;;;3.78;1.95;;;;;;;;;;5071271;28;20044;-63
2022/04/20 11:58:31;;;;;;;5.05;2.03;;;;;;;;;;5071599;28;20072;-63
2022/04/20 12:01:04;;;;;;;6.97;2.33;;;;;;;;;;5079519;28;20047;-63
2022/04/20 12:03:36;;;;;;;4.07;1.88;;;;;;;;;;5090130;28;20041;-63
2022/04/20 12:06:07;;;;;;;3.20;2.05;;;;;;;;;;5091503;28;20078;-64
2022/04/20 12:08:33;;;;;;;6.35;2.20;;;;;;;;;;5091770;28;20612;-64
2022/04/20 12:11:04;;;;;;;5.05;1.75;;;;;;;;;;5090332;28;20040;-63
2022/04/20 12:13:31;;;;;;;3.00;1.85;;;;;;;;;;5089554;28;20491;-63
2022/04/20 12:16:05;;;;;;;4.00;1.75;;;;;;;;;;5072664;28;20051;-64
2022/04/20 12:18:33;;;;;;;7.00;1.40;;;;;;;;;;5071115;28;20052;-63
2022/04/20 12:21:00;;;;;;;6.00;1.60;;;;;;;;;;5071133;28;20483;-63
2022/04/20 12:23:35;;;;;;;3.53;1.42;;;;;;;;;;5077618;28;20085;-63
2022/04/20 12:26:05;;;;;;;2.25;1.35;;;;;;;;;;5091222;28;20414;-64
2022/04/20 12:28:35;;;;;;;2.70;1.50;;;;;;;;;;5089687;28;20081;-64
2022/04/20 12:31:02;;;;;;;3.53;1.40;;;;;;;;;;5089256;28;20104;-64
2022/04/20 12:33:28;;;;;;;2.25;1.38;;;;;;;;;;5075230;28;20510;-64
2022/04/20 12:36:01;;;;;;;4.90;1.20;;;;;;;;;;5090869;28;20133;-64
2022/04/20 12:38:28;;;;;;;4.20;1.40;;;;;;;;;;5070733;28;20403;-64
2022/04/20 12:40:54;;;;;;;2.40;1.25;;;;;;;;;;5072884;28;20048;-63
2022/04/20 12:43:20;;;;;;;4.32;1.85;;;;;;;;;;5068598;28;20045;-63
2022/04/20 12:45:46;;;;;;;2.30;1.58;;;;;;;;;;5069561;28;20422;-64
2022/04/20 12:48:12;;;;;;;4.60;1.20;;;;;;;;;;5069732;28;20563;-63
2022/04/20 12:50:43;;;;;;;2.65;1.35;;;;;;;;;;5077339;28;20101;-64
2022/04/20 12:53:09;;;;;;;3.05;1.50;;;;;;;;;;5068741;28;20040;-63
2022/04/20 12:55:39;;;;;;;4.65;1.35;;;;;;;;;;5075424;28;20044;-63
2022/04/20 13:03:42;;;;;;;3.20;1.60;;;;;;;;;;5078146;28;20792;-63
2022/04/20 13:06:12;;;;;;;2.00;1.20;;;;;;;;;;5077836;28;20036;-63
2022/04/20 13:08:40;;;;;;;3.58;1.40;;;;;;;;;;5078351;28;20043;-64
2022/04/20 13:11:07;;;;;;;4.10;1.98;;;;;;;;;;5077008;28;21507;-63
2022/04/20 13:13:33;;;;;;;2.80;1.50;;;;;;;;;;5070552;28;20066;-63
2022/04/20 13:15:59;;;;;;;5.63;1.42;;;;;;;;;;5081752;28;20040;-64
2022/04/20 13:18:25;;;;;;;3.80;1.27;;;;;;;;;;5069945;28;20082;-63
2022/04/20 13:20:52;;;;;;;2.53;1.50;;;;;;;;;;5070075;28;20056;-65
2022/04/20 13:23:19;;;;;;;4.70;1.55;;;;;;;;;;5072861;28;20063;-64
2022/04/20 13:28:30;;;;;;;4.47;1.98;;;;;;;;;;5069168;28;20087;-64
2022/04/20 13:30:56;;;;;;;9.65;1.48;;;;;;;;;;5073602;28;20078;-64
2022/04/20 13:33:22;;;;;;;2.97;1.50;;;;;;;;;;5069804;28;20080;-63
2022/04/20 13:35:51;;;;;;;3.28;1.50;;;;;;;;;;5069736;28;20082;-64
2022/04/20 13:38:18;;;;;;;3.28;1.90;;;;;;;;;;5063430;28;20067;-64
2022/04/20 13:40:44;;;;;;;2.67;1.70;;;;;;;;;;5065493;28;20423;-64
2022/04/20 13:43:10;;;;;;;2.55;1.90;;;;;;;;;;5069217;28;20049;-63
2022/04/20 13:45:36;;;;;;;6.82;1.90;;;;;;;;;;5069424;28;20090;-63
2022/04/20 13:48:02;;;;;;;4.93;2.08;;;;;;;;;;5070280;28;20093;-63
2022/04/20 13:50:29;;;;;;;4.70;2.17;;;;;;;;;;5077585;28;20040;-64
2022/04/20 13:52:55;;;;;;;3.63;1.95;;;;;;;;;;5074338;28;20044;-64
2022/04/20 13:55:21;;;;;;;4.43;2.17;;;;;;;;;;5084756;28;20044;-63
2022/04/20 13:57:47;;;;;;;4.05;2.10;;;;;;;;;;5072475;28;20470;-63
2022/04/20 14:00:14;;;;;;;4.40;2.15;;;;;;;;;;5068291;28;20559;-64
2022/04/20 14:02:44;;;;;;;3.78;2.10;;;;;;;;;;5069316;28;20036;-63
2022/04/20 14:05:10;;;;;;;4.18;2.28;;;;;;;;;;5069220;28;20079;-63
2022/04/20 14:07:37;;;;;;;4.28;2.05;;;;;;;;;;5069889;28;20048;-63
2022/04/20 14:10:05;;;;;;;7.82;2.13;;;;;;;;;;5076640;28;20095;-63
2022/04/20 14:12:31;;;;;;;5.32;2.67;;;;;;;;;;5089409;28;20051;-63
2022/04/20 14:14:59;;;;;;;3.10;2.33;;;;;;;;;;5071480;28;20049;-63
2022/04/20 14:17:25;;;;;;;6.80;2.97;;;;;;;;;;5069156;28;20048;-63
2022/04/20 14:19:51;;;;;;;7.25;2.30;;;;;;;;;;5069531;28;20041;-63
2022/04/20 14:22:17;;;;;;;5.90;2.40;;;;;;;;;;5089310;28;20047;-64
2022/04/20 14:24:45;;;;;;;4.15;2.33;;;;;;;;;;5089827;28;20102;-63
2022/04/20 14:32:55;;;;;;;3.40;2.30;;;;;;;;;;5068949;28;20044;-63
2022/04/20 14:35:21;;;;;;;6.32;2.13;;;;;;;;;;5069503;28;20159;-63
2022/04/20 14:37:47;;;;;;;4.40;2.15;;;;;;;;;;5070371;28;20055;-63
2022/04/20 14:40:14;;;;;;;3.92;2.10;;;;;;;;;;5071638;28;20391;-63
2022/04/20 14:42:40;;;;;;;3.88;2.40;;;;;;;;;;5068892;28;20036;-63
2022/04/20 14:45:07;;;;;;;2.90;2.17;;;;;;;;;;5069133;28;20540;-63
2022/04/20 14:47:33;;;;;;;4.00;2.70;;;;;;;;;;5069248;28;20482;-64
2022/04/20 14:49:59;;;;;;;3.95;2.35;;;;;;;;;;5077751;28;20051;-63
2022/04/20 14:52:25;;;;;;;6.40;2.78;;;;;;;;;;5081636;28;20052;-63
2022/04/20 14:54:51;;;;;;;6.53;2.92;;;;;;;;;;5068319;28;20070;-64
2022/04/20 14:57:17;;;;;;;3.45;2.50;;;;;;;;;;5081012;28;20075;-63
2022/04/20 14:59:43;;;;;;;5.93;2.58;;;;;;;;;;5076096;28;20410;-63
2022/04/20 15:02:12;;;;;;;4.78;2.60;;;;;;;;;;5072794;28;20093;-63
2022/04/20 15:04:38;;;;;;;5.15;2.45;;;;;;;;;;5072589;28;20744;-63
2022/04/20 15:07:04;;;;;;;6.25;2.60;;;;;;;;;;5082323;28;20044;-63
2022/04/20 15:09:30;;;;;;;4.80;2.58;;;;;;;;;;5074491;28;20048;-63
2022/04/20 15:11:59;;;;;;;5.18;2.63;;;;;;;;;;5085842;28;20048;-63
2022/04/20 15:14:25;;;;;;;5.90;2.17;;;;;;;;;;5072496;28;20866;-63
2022/04/20 15:16:52;;;;;;;4.28;2.55;;;;;;;;;;5072666;28;20392;-63
2022/04/20 15:19:18;;;;;;;3.72;2.47;;;;;;;;;;5072439;28;20052;-63
2022/04/20 15:21:45;;;;;;;4.85;2.50;;;;;;;;;;5071726;28;20113;-63
2022/04/20 15:24:11;;;;;;;4.13;2.67;;;;;;;;;;5072326;28;20048;-63
2022/04/20 15:26:38;;;;;;;6.15;2.65;;;;;;;;;;5077422;28;20044;-63
2022/04/20 15:29:05;;;;;;;3.20;2.53;;;;;;;;;;5074466;28;20051;-63